createdAt,value
2022-12-22T00:00:59.815Z,29.42
2022-12-22T00:06:20.110Z,29.00
2022-12-22T00:11:41.878Z,32.10
2022-12-22T00:17:02.198Z,27.65
2022-12-22T00:22:30.931Z,29.67
2022-12-22T00:27:52.578Z,24.98
2022-12-22T00:33:12.701Z,31.88
2022-12-22T00:38:35.633Z,27.13
2022-12-22T00:43:57.014Z,28.50
2022-12-22T00:49:18.330Z,27.17
2022-12-22T00:54:41.635Z,22.05
2022-12-22T01:00:03.488Z,24.80
2022-12-22T01:05:24.431Z,27.77
2022-12-22T01:10:46.081Z,24.77
2022-12-22T01:16:07.959Z,26.63
2022-12-22T01:21:29.340Z,28.40
2022-12-22T01:26:49.947Z,29.83
2022-12-22T01:32:12.410Z,28.05
2022-12-22T01:37:32.511Z,27.65
2022-12-22T01:42:53.786Z,26.65
2022-12-22T01:48:15.169Z,28.50
2022-12-22T01:53:38.289Z,24.42
2022-12-22T01:59:01.989Z,27.02
2022-12-22T02:04:24.209Z,24.42
2022-12-22T02:09:55.423Z,24.20
2022-12-22T02:15:25.774Z,25.20
2022-12-22T02:21:07.652Z,22.20
2022-12-22T02:26:45.621Z,24.80
2022-12-22T02:32:05.869Z,23.38
2022-12-22T02:37:36.303Z,26.75
2022-12-22T02:43:08.614Z,20.85
2022-12-22T02:48:32.938Z,21.90
2022-12-22T02:53:53.850Z,21.05
2022-12-22T02:59:15.329Z,18.23
2022-12-22T03:04:35.591Z,19.38
2022-12-22T03:09:55.935Z,22.35
2022-12-22T03:15:17.564Z,22.02
2022-12-22T03:20:37.890Z,21.38
2022-12-22T03:25:53.893Z,19.40
2022-12-22T03:31:00.767Z,19.65
2022-12-22T03:36:04.189Z,19.50
2022-12-22T03:41:07.329Z,18.23
2022-12-22T03:46:31.519Z,18.45
2022-12-22T03:51:35.095Z,21.00
2022-12-22T03:56:38.331Z,19.50
2022-12-22T04:01:46.199Z,18.63
2022-12-22T04:06:49.689Z,20.05
2022-12-22T04:12:09.807Z,20.20
2022-12-22T04:17:14.036Z,19.48
2022-12-22T04:22:16.780Z,16.45
2022-12-22T04:27:19.558Z,18.83
2022-12-22T04:32:23.783Z,16.48
2022-12-22T04:37:26.810Z,16.25
2022-12-22T04:42:30.159Z,14.38
2022-12-22T04:47:34.420Z,13.07
2022-12-22T04:52:37.340Z,12.73
2022-12-22T04:57:41.140Z,12.98
2022-12-22T05:02:45.586Z,13.45
2022-12-22T05:07:48.654Z,13.40
2022-12-22T05:12:57.236Z,16.92
2022-12-22T05:18:02.286Z,12.93
2022-12-22T05:23:05.190Z,17.73
2022-12-22T05:28:08.065Z,17.65
2022-12-22T05:33:12.209Z,19.52
2022-12-22T05:38:15.081Z,20.23
2022-12-22T05:43:18.101Z,20.02
2022-12-22T05:48:28.283Z,21.38
2022-12-22T05:53:33.207Z,19.50
2022-12-22T05:58:38.182Z,24.30
2022-12-22T06:03:42.890Z,23.88
2022-12-22T06:08:45.961Z,21.83
2022-12-22T06:13:51.171Z,24.10
2022-12-22T06:18:55.337Z,26.80
2022-12-22T06:23:58.207Z,28.35
2022-12-22T06:29:01.231Z,28.33
2022-12-22T06:34:05.386Z,25.42
2022-12-22T06:39:08.255Z,25.50
2022-12-22T06:44:14.055Z,26.85
2022-12-22T06:49:18.350Z,28.30
2022-12-22T06:54:26.117Z,27.83
2022-12-22T06:59:29.382Z,29.83
2022-12-22T07:04:40.605Z,27.17
2022-12-22T07:09:43.448Z,26.40
2022-12-22T07:14:46.195Z,26.40
2022-12-22T07:19:50.360Z,25.50
2022-12-22T07:24:53.295Z,31.58
2022-12-22T07:29:58.539Z,29.52
2022-12-22T07:35:05.588Z,26.05
2022-12-22T07:40:10.528Z,30.70
2022-12-22T07:45:13.436Z,26.25
2022-12-22T07:50:28.835Z,39.47
2022-12-22T07:55:36.373Z,24.92
2022-12-22T08:00:39.154Z,27.13
2022-12-22T08:05:44.500Z,29.80
2022-12-22T08:10:47.373Z,26.67
2022-12-22T08:15:50.275Z,24.00
2022-12-22T08:20:54.472Z,28.30
2022-12-22T08:26:03.753Z,31.23
2022-12-22T08:31:06.997Z,25.73
2022-12-22T08:36:12.683Z,27.25
2022-12-22T08:41:37.420Z,22.85
2022-12-22T08:46:40.391Z,24.33
2022-12-22T08:51:45.214Z,25.38
2022-12-22T08:56:48.319Z,24.92
2022-12-22T09:01:51.609Z,22.85
2022-12-22T09:06:55.920Z,22.92
2022-12-22T09:11:58.724Z,22.02
2022-12-22T09:17:01.537Z,19.75
2022-12-22T09:22:05.959Z,20.25
2022-12-22T09:27:09.189Z,22.25
2022-12-22T09:32:12.107Z,22.15
2022-12-22T09:37:18.174Z,20.50
2022-12-22T09:42:24.675Z,21.80
2022-12-22T09:47:33.227Z,21.75
2022-12-22T09:53:20.893Z,22.25
2022-12-22T09:58:30.019Z,24.27
2022-12-22T10:03:41.114Z,28.67
2022-12-22T10:08:46.844Z,32.72
2022-12-22T10:13:49.809Z,33.15
2022-12-22T10:18:59.125Z,32.70
2022-12-22T10:24:17.180Z,34.65
2022-12-22T10:29:20.237Z,32.10
2022-12-22T10:34:24.991Z,33.97
2022-12-22T10:39:31.980Z,30.58
2022-12-22T10:44:37.075Z,28.67
2022-12-22T10:54:46.313Z,28.20
2022-12-22T10:59:52.267Z,26.27
2022-12-22T11:05:01.596Z,24.00
2022-12-22T11:10:18.687Z,29.17
2022-12-22T11:15:31.805Z,26.20
2022-12-22T11:20:50.031Z,25.05
2022-12-22T11:26:08.997Z,24.17
2022-12-22T11:31:25.396Z,24.73
2022-12-22T11:36:40.722Z,24.98
2022-12-22T11:41:57.891Z,24.95
2022-12-22T11:47:05.634Z,24.23
2022-12-22T11:52:23.389Z,27.47
2022-12-22T11:57:35.653Z,28.77
2022-12-22T12:03:05.834Z,28.90
2022-12-22T12:08:19.133Z,25.77
2022-12-22T12:13:37.477Z,26.67
2022-12-22T12:19:04.729Z,25.25
2022-12-22T12:24:31.561Z,26.73
2022-12-22T12:29:41.966Z,27.75
2022-12-22T12:34:50.661Z,26.27
2022-12-22T12:40:06.348Z,28.90
2022-12-22T12:45:39.709Z,29.35
2022-12-22T12:50:42.888Z,25.60
2022-12-22T12:56:04.338Z,26.02
2022-12-22T13:01:11.950Z,28.13
2022-12-22T13:06:51.761Z,26.40
2022-12-22T13:12:12.821Z,19.52
2022-12-22T13:17:42.537Z,19.20
2022-12-22T13:22:54.982Z,19.52
2022-12-22T13:27:59.292Z,22.48
2022-12-22T13:33:03.738Z,22.63
2022-12-22T13:38:06.737Z,20.80
2022-12-22T13:43:14.495Z,20.77
2022-12-22T13:48:22.319Z,22.53
2022-12-22T13:59:00.316Z,18.45
2022-12-22T14:04:07.863Z,19.02
2022-12-22T14:09:22.593Z,16.90
2022-12-22T14:14:28.234Z,19.95
2022-12-22T14:19:35.999Z,19.52
2022-12-22T14:24:43.908Z,20.33
2022-12-22T14:29:46.822Z,17.38
2022-12-22T14:34:55.253Z,17.25
2022-12-22T14:45:00.903Z,18.02
2022-12-22T14:50:17.937Z,22.83
2022-12-22T14:55:29.823Z,24.58
2022-12-22T15:00:35.983Z,23.08
2022-12-22T15:05:42.106Z,21.92
2022-12-22T15:10:45.771Z,19.05
2022-12-22T15:15:50.439Z,20.38
2022-12-22T15:20:55.097Z,17.02
2022-12-22T15:25:57.874Z,20.33
2022-12-22T15:31:01.065Z,17.10
2022-12-22T15:36:06.651Z,28.83
2022-12-22T15:41:09.518Z,20.10
2022-12-22T15:46:15.727Z,18.27
2022-12-22T15:51:23.660Z,20.30
2022-12-22T15:56:29.473Z,25.90
2022-12-22T16:01:32.427Z,25.35
2022-12-22T16:06:37.015Z,25.80
2022-12-22T16:11:40.078Z,20.00
2022-12-22T16:16:42.858Z,24.90
2022-12-22T16:21:49.762Z,26.55
2022-12-22T16:26:52.600Z,30.75
2022-12-22T16:32:17.585Z,24.38
2022-12-22T16:37:22.175Z,27.38
2022-12-22T16:47:45.950Z,23.92
2022-12-22T16:52:51.692Z,24.40
2022-12-22T16:57:54.457Z,21.63
2022-12-22T17:03:00.887Z,19.15
2022-12-22T17:08:07.989Z,23.48
2022-12-22T17:13:13.373Z,18.65
2022-12-22T17:18:18.070Z,21.58
2022-12-22T17:23:31.454Z,16.92
2022-12-22T17:28:38.350Z,18.13
2022-12-22T17:33:41.195Z,16.45
2022-12-22T17:38:45.393Z,19.25
2022-12-22T17:43:51.261Z,25.73
2022-12-22T17:48:54.114Z,18.35
2022-12-22T17:54:00.153Z,16.52
2022-12-22T17:59:02.988Z,15.38
2022-12-22T18:04:09.672Z,21.63
2022-12-22T18:09:21.900Z,20.65
2022-12-22T18:14:24.729Z,17.27
2022-12-22T18:19:27.482Z,22.58
2022-12-22T18:24:31.653Z,21.40
2022-12-22T18:29:34.479Z,18.83
2022-12-22T18:34:37.279Z,19.20
2022-12-22T18:39:41.989Z,26.92
2022-12-22T18:44:45.216Z,21.23
2022-12-22T18:49:49.308Z,27.75
2022-12-22T18:54:53.533Z,23.23
2022-12-22T18:59:56.239Z,31.17
2022-12-22T19:04:59.278Z,27.60
2022-12-22T19:10:03.474Z,21.30
2022-12-22T19:15:08.238Z,29.90
2022-12-22T19:20:16.531Z,26.13
2022-12-22T19:25:23.240Z,25.17
2022-12-22T19:30:29.833Z,25.42
2022-12-22T19:35:33.500Z,27.23
2022-12-22T19:40:38.143Z,27.77
2022-12-22T19:45:41.083Z,22.67
2022-12-22T19:50:44.061Z,22.17
2022-12-22T19:55:52.876Z,16.00
2022-12-22T20:00:56.569Z,26.02
2022-12-22T20:05:59.496Z,21.30
2022-12-22T20:11:15.980Z,35.60
2022-12-22T20:16:25.533Z,23.55
2022-12-22T20:21:44.067Z,26.15
2022-12-22T20:26:55.841Z,21.35
2022-12-22T20:37:50.579Z,26.67
2022-12-22T20:43:11.690Z,22.88
2022-12-22T20:55:59.977Z,24.83
2022-12-22T21:02:40.380Z,24.05
2022-12-22T21:13:50.307Z,25.50
2022-12-22T21:19:02.262Z,25.98
2022-12-22T21:24:05.495Z,23.73
2022-12-22T21:29:14.094Z,24.05
2022-12-22T21:34:18.904Z,25.05
2022-12-22T21:39:28.841Z,25.77
2022-12-22T21:44:36.725Z,27.40
2022-12-22T21:55:47.367Z,25.77
2022-12-22T22:00:50.687Z,28.77
2022-12-22T22:05:54.817Z,29.27
2022-12-22T22:10:57.715Z,32.38
2022-12-22T22:16:00.478Z,30.15
2022-12-22T22:21:07.576Z,28.30
2022-12-22T22:26:12.296Z,29.50
2022-12-22T22:31:15.094Z,30.67
2022-12-22T22:36:19.359Z,33.08
2022-12-22T22:41:22.183Z,29.40
2022-12-22T22:46:25.037Z,34.17
2022-12-22T22:51:29.187Z,30.98
2022-12-22T22:56:32.184Z,33.63
2022-12-22T23:01:34.988Z,34.45
2022-12-22T23:06:41.590Z,30.02
2022-12-22T23:11:44.424Z,36.38
2022-12-22T23:16:49.283Z,36.47
2022-12-22T23:21:53.683Z,35.47
2022-12-22T23:26:56.729Z,35.65
2022-12-22T23:31:59.623Z,34.55
2022-12-22T23:37:04.565Z,34.83
2022-12-22T23:42:07.339Z,32.83
2022-12-22T23:47:10.250Z,38.28
2022-12-22T23:52:14.436Z,34.55
2022-12-22T23:57:17.237Z,33.45
